createdAt,value
2022-09-01T00:00:53.698Z,72.96
2022-09-01T00:01:53.703Z,72.24
2022-09-01T00:02:53.766Z,73.56
2022-09-01T00:03:53.703Z,73.49
2022-09-01T00:04:53.645Z,72.85
2022-09-01T00:05:53.638Z,73.19
2022-09-01T00:06:53.634Z,73.09
2022-09-01T00:07:53.626Z,72.78
2022-09-01T00:08:53.599Z,72.89
2022-09-01T00:09:53.589Z,73.09
2022-09-01T00:10:53.577Z,73.25
2022-09-01T00:11:53.567Z,73.39
2022-09-01T00:12:53.606Z,73.19
2022-09-01T00:13:53.541Z,73.29
2022-09-01T00:14:53.529Z,73.49
2022-09-01T00:15:53.565Z,73.19
2022-09-01T00:16:53.513Z,73.39
2022-09-01T00:17:53.519Z,73.29
2022-09-01T00:18:53.497Z,73.39
2022-09-01T00:19:53.476Z,72.89
2022-09-01T00:20:53.463Z,73.09
2022-09-01T00:21:53.456Z,72.89
2022-09-01T00:22:53.442Z,72.89
2022-09-01T00:23:53.443Z,73.09
2022-09-01T00:24:53.427Z,72.99
2022-09-01T00:25:53.406Z,72.99
2022-09-01T00:26:53.395Z,72.89
2022-09-01T00:27:53.383Z,73.29
2022-09-01T00:28:53.389Z,72.78
2022-09-01T00:29:53.363Z,72.89
2022-09-01T00:30:53.432Z,73.19
2022-09-01T00:31:53.339Z,73.33
2022-09-01T00:32:53.325Z,73.29
2022-09-01T00:33:53.321Z,73.12
2022-09-01T00:34:53.314Z,72.89
2022-09-01T00:35:53.291Z,73.33
2022-09-01T00:36:53.299Z,73.43
2022-09-01T00:37:53.271Z,73.02
2022-09-01T00:38:53.259Z,72.61
2022-09-01T00:39:53.257Z,73.29
2022-09-01T00:40:53.328Z,73.33
2022-09-01T00:41:53.240Z,73.33
2022-09-01T00:42:53.211Z,73.43
2022-09-01T00:43:53.202Z,73.43
2022-09-01T00:44:53.210Z,73.33
2022-09-01T00:45:53.255Z,73.83
2022-09-01T00:46:55.367Z,73.12
2022-09-01T00:47:53.174Z,73.33
2022-09-01T00:48:53.144Z,73.43
2022-09-01T00:49:53.156Z,72.92
2022-09-01T00:50:54.647Z,73.33
2022-09-01T00:51:53.109Z,72.82
2022-09-01T00:52:53.120Z,72.82
2022-09-01T00:53:53.094Z,73.02
2022-09-01T00:54:53.080Z,72.61
2022-09-01T00:55:53.077Z,73.63
2022-09-01T00:56:57.391Z,73.22
2022-09-01T00:57:53.044Z,73.43
2022-09-01T00:58:53.041Z,73.36
2022-09-01T00:59:53.021Z,72.65
2022-09-01T01:00:53.029Z,73.36
2022-09-01T01:01:53.039Z,73.57
2022-09-01T01:02:53.032Z,73.16
2022-09-01T01:03:52.979Z,73.46
2022-09-01T01:04:53.018Z,73.46
2022-09-01T01:05:52.950Z,73.26
2022-09-01T01:06:52.952Z,72.75
2022-09-01T01:07:52.927Z,73.66
2022-09-01T01:08:52.916Z,73.77
2022-09-01T01:09:52.907Z,73.66
2022-09-01T01:10:52.928Z,73.77
2022-09-01T01:11:52.884Z,73.80
2022-09-01T01:12:52.865Z,73.46
2022-09-01T01:13:52.858Z,73.87
2022-09-01T01:14:52.861Z,73.70
2022-09-01T01:15:52.852Z,73.80
2022-09-01T01:16:52.914Z,73.80
2022-09-01T01:17:52.829Z,74.21
2022-09-01T01:18:52.805Z,74.10
2022-09-01T01:19:52.790Z,74.21
2022-09-01T01:20:52.791Z,74.51
2022-09-01T01:21:52.771Z,74.62
2022-09-01T01:22:52.784Z,74.85
2022-09-01T01:23:52.745Z,75.36
2022-09-01T01:24:52.731Z,75.16
2022-09-01T01:25:52.733Z,74.92
2022-09-01T01:26:52.713Z,75.16
2022-09-01T01:27:53.449Z,75.26
2022-09-01T01:28:52.692Z,75.16
2022-09-01T01:29:52.676Z,75.36
2022-09-01T01:30:52.874Z,75.05
2022-09-01T01:31:52.653Z,75.56
2022-09-01T01:32:52.643Z,75.26
2022-09-01T01:33:52.637Z,75.46
2022-09-01T01:34:52.625Z,75.36
2022-09-01T01:35:52.644Z,75.26
2022-09-01T01:36:52.598Z,75.36
2022-09-01T01:37:52.585Z,75.56
2022-09-01T01:38:52.571Z,75.26
2022-09-01T01:39:52.560Z,75.60
2022-09-01T01:40:52.581Z,75.29
2022-09-01T01:41:52.555Z,75.26
2022-09-01T01:42:52.524Z,75.19
2022-09-01T01:43:52.517Z,75.40
2022-09-01T01:44:52.501Z,75.29
2022-09-01T01:45:53.558Z,75.49
2022-09-01T01:46:52.517Z,75.56
2022-09-01T01:47:52.475Z,75.56
2022-09-01T01:48:52.521Z,74.99
2022-09-01T01:49:52.449Z,75.60
2022-09-01T01:50:52.439Z,75.56
2022-09-01T01:51:52.441Z,75.60
2022-09-01T01:52:55.182Z,74.79
2022-09-01T01:53:53.406Z,75.49
2022-09-01T01:54:52.391Z,75.29
2022-09-01T01:55:52.380Z,75.09
2022-09-01T01:56:52.371Z,75.49
2022-09-01T01:57:52.367Z,75.60
2022-09-01T01:58:52.398Z,74.58
2022-09-01T01:59:52.339Z,74.28
2022-09-01T02:00:52.321Z,74.79
2022-09-01T02:01:52.359Z,74.07
2022-09-01T02:02:52.454Z,74.04
2022-09-01T02:03:52.302Z,73.97
2022-09-01T02:04:52.304Z,73.77
2022-09-01T02:05:52.272Z,74.07
2022-09-01T02:06:52.260Z,74.04
2022-09-01T02:07:52.246Z,73.97
2022-09-01T02:08:52.254Z,74.38
2022-09-01T02:09:52.237Z,74.07
2022-09-01T02:10:52.210Z,73.87
2022-09-01T02:11:52.200Z,73.97
2022-09-01T02:12:52.185Z,74.18
2022-09-01T02:13:52.181Z,74.38
2022-09-01T02:14:52.191Z,74.18
2022-09-01T02:15:52.162Z,74.18
2022-09-01T02:16:52.290Z,74.38
2022-09-01T02:17:52.133Z,74.28
2022-09-01T02:18:52.143Z,74.28
2022-09-01T02:19:52.114Z,74.07
2022-09-01T02:20:59.572Z,73.77
2022-09-01T02:21:52.086Z,73.77
2022-09-01T02:22:52.071Z,73.46
2022-09-01T02:23:52.063Z,73.77
2022-09-01T02:24:52.059Z,73.87
2022-09-01T02:26:14.512Z,73.97
2022-09-01T02:26:53.042Z,73.97
2022-09-01T02:27:52.018Z,73.77
2022-09-01T02:28:55.261Z,73.87
2022-09-01T02:29:52.008Z,74.18
2022-09-01T02:30:52.085Z,74.18
2022-09-01T02:31:51.973Z,74.07
2022-09-01T02:32:51.978Z,74.38
2022-09-01T02:33:51.981Z,74.18
2022-09-01T02:34:51.936Z,74.18
2022-09-01T02:35:51.936Z,74.58
2022-09-01T02:36:51.923Z,75.49
2022-09-01T02:37:51.942Z,74.82
2022-09-01T02:38:53.428Z,75.63
2022-09-01T02:39:51.888Z,75.73
2022-09-01T02:40:51.891Z,75.63
2022-09-01T02:41:51.866Z,75.43
2022-09-01T02:42:51.853Z,75.33
2022-09-01T02:43:51.871Z,75.23
2022-09-01T02:44:51.836Z,75.43
2022-09-01T02:45:51.874Z,75.73
2022-09-01T02:46:51.808Z,75.37
2022-09-01T02:47:51.799Z,75.26
2022-09-01T02:48:51.779Z,75.46
2022-09-01T02:49:51.781Z,75.46
2022-09-01T02:50:51.756Z,75.57
2022-09-01T02:51:51.764Z,75.33
2022-09-01T02:52:51.737Z,75.12
2022-09-01T02:53:51.749Z,75.77
2022-09-01T02:54:51.735Z,75.53
2022-09-01T02:55:51.712Z,75.73
2022-09-01T02:56:51.690Z,75.46
2022-09-01T02:57:51.680Z,75.87
2022-09-01T02:58:51.675Z,75.46
2022-09-01T02:59:51.689Z,76.07
2022-09-01T03:00:51.672Z,75.77
2022-09-01T03:01:51.637Z,75.77
2022-09-01T03:02:51.623Z,76.07
2022-09-01T03:03:51.614Z,76.07
2022-09-01T03:04:51.663Z,76.82
2022-09-01T03:05:51.593Z,76.79
2022-09-01T03:06:51.582Z,76.62
2022-09-01T03:07:51.567Z,76.52
2022-09-01T03:08:51.556Z,76.38
2022-09-01T03:09:51.549Z,76.42
2022-09-01T03:10:51.552Z,76.82
2022-09-01T03:11:51.555Z,76.62
2022-09-01T03:12:51.519Z,77.03
2022-09-01T03:13:51.501Z,77.13
2022-09-01T03:14:51.491Z,76.72
2022-09-01T03:15:51.486Z,77.13
2022-09-01T03:16:51.578Z,77.44
2022-09-01T03:17:51.454Z,77.33
2022-09-01T03:18:51.461Z,77.03
2022-09-01T03:19:51.432Z,76.62
2022-09-01T03:20:51.425Z,77.33
2022-09-01T03:21:51.432Z,77.03
2022-09-01T03:22:51.401Z,77.33
2022-09-01T03:23:51.389Z,77.23
2022-09-01T03:24:51.376Z,77.23
2022-09-01T03:25:51.401Z,76.92
2022-09-01T03:26:51.376Z,77.53
2022-09-01T03:27:51.360Z,77.44
2022-09-01T03:28:51.334Z,77.33
2022-09-01T03:29:51.324Z,77.47
2022-09-01T03:30:51.305Z,76.86
2022-09-01T03:31:51.408Z,77.17
2022-09-01T03:32:51.289Z,77.26
2022-09-01T03:33:51.271Z,77.26
2022-09-01T03:34:51.263Z,77.57
2022-09-01T03:35:51.282Z,77.47
2022-09-01T03:36:51.251Z,77.51
2022-09-01T03:37:51.240Z,77.91
2022-09-01T03:38:51.225Z,78.02
2022-09-01T03:39:51.212Z,77.51
2022-09-01T03:40:52.199Z,77.87
2022-09-01T03:41:51.184Z,77.98
2022-09-01T03:42:51.211Z,78.22
2022-09-01T03:43:51.158Z,78.22
2022-09-01T03:44:51.153Z,78.19
2022-09-01T03:45:51.197Z,78.28
2022-09-01T03:46:51.136Z,78.28
2022-09-01T03:47:51.116Z,78.59
2022-09-01T03:48:51.118Z,78.59
2022-09-01T03:49:51.113Z,78.73
2022-09-01T03:50:51.084Z,78.93
2022-09-01T03:51:51.075Z,78.73
2022-09-01T03:52:51.060Z,78.53
2022-09-01T03:53:51.065Z,78.73
2022-09-01T03:54:51.043Z,78.93
2022-09-01T03:55:51.041Z,78.93
2022-09-01T03:56:51.018Z,78.83
2022-09-01T03:57:51.004Z,78.63
2022-09-01T03:58:51.019Z,79.03
2022-09-01T03:59:50.981Z,78.83
2022-09-01T04:00:51.022Z,78.53
2022-09-01T04:01:51.004Z,79.07
2022-09-01T04:02:56.197Z,78.73
2022-09-01T04:03:51.966Z,79.24
2022-09-01T04:04:50.927Z,79.34
2022-09-01T04:05:50.916Z,79.44
2022-09-01T04:06:50.927Z,79.14
2022-09-01T04:07:50.890Z,79.03
2022-09-01T04:08:50.883Z,79.24
2022-09-01T04:09:50.877Z,79.14
2022-09-01T04:10:52.598Z,79.38
2022-09-01T04:11:50.857Z,79.44
2022-09-01T04:12:50.897Z,79.03
2022-09-01T04:13:50.842Z,79.44
2022-09-01T04:14:50.816Z,79.38
2022-09-01T04:15:50.801Z,79.48
2022-09-01T04:16:50.856Z,79.48
2022-09-01T04:17:50.790Z,79.48
2022-09-01T04:18:50.771Z,79.64
2022-09-01T04:19:50.766Z,79.38
2022-09-01T04:20:50.747Z,79.27
2022-09-01T04:21:50.783Z,79.38
2022-09-01T04:22:50.763Z,79.34
2022-09-01T04:23:50.730Z,79.48
2022-09-01T04:24:50.723Z,79.27
2022-09-01T04:25:50.685Z,79.89
2022-09-01T04:26:50.680Z,79.79
2022-09-01T04:27:50.664Z,79.58
2022-09-01T04:28:50.658Z,79.68
2022-09-01T04:29:50.669Z,79.48
2022-09-01T04:30:51.956Z,79.68
2022-09-01T04:31:50.701Z,79.58
2022-09-01T04:32:50.626Z,79.58
2022-09-01T04:33:50.594Z,79.48
2022-09-01T04:34:50.601Z,79.48
2022-09-01T04:35:50.587Z,79.62
2022-09-01T04:36:50.566Z,79.38
2022-09-01T04:37:50.551Z,79.52
2022-09-01T04:38:50.560Z,79.38
2022-09-01T04:39:55.360Z,79.32
2022-09-01T04:40:51.576Z,79.52
2022-09-01T04:41:50.508Z,79.93
2022-09-01T04:42:50.496Z,80.23
2022-09-01T04:43:50.493Z,80.33
2022-09-01T04:44:50.475Z,80.54
2022-09-01T04:45:50.503Z,80.57
2022-09-01T04:46:50.479Z,80.16
2022-09-01T04:47:50.441Z,80.37
2022-09-01T04:48:50.432Z,80.27
2022-09-01T04:49:50.428Z,80.37
2022-09-01T04:50:50.420Z,80.16
2022-09-01T04:51:53.728Z,80.16
2022-09-01T04:52:50.384Z,80.47
2022-09-01T04:53:50.368Z,80.47
2022-09-01T04:54:50.367Z,80.47
2022-09-01T04:55:50.380Z,81.29
2022-09-01T04:56:50.366Z,81.29
2022-09-01T04:57:50.329Z,80.88
2022-09-01T04:58:50.315Z,80.68
2022-09-01T04:59:50.304Z,80.78
2022-09-01T05:00:50.343Z,80.78
2022-09-01T05:01:50.474Z,81.09
2022-09-01T05:02:50.273Z,81.29
2022-09-01T05:03:50.258Z,81.73
2022-09-01T05:04:50.250Z,81.59
2022-09-01T05:05:50.259Z,81.49
2022-09-01T05:06:50.238Z,81.53
2022-09-01T05:07:50.213Z,81.23
2022-09-01T05:08:50.208Z,81.53
2022-09-01T05:09:50.191Z,81.49
2022-09-01T05:10:50.186Z,81.70
2022-09-01T05:11:50.208Z,81.90
2022-09-01T05:12:50.161Z,81.80
2022-09-01T05:13:50.145Z,81.49
2022-09-01T05:14:50.137Z,81.29
2022-09-01T05:15:50.259Z,81.49
2022-09-01T05:16:50.235Z,81.70
2022-09-01T05:17:50.103Z,82.10
2022-09-01T05:18:50.090Z,82.00
2022-09-01T05:19:50.078Z,82.00
2022-09-01T05:20:50.068Z,82.00
2022-09-01T05:21:50.072Z,82.10
2022-09-01T05:22:50.046Z,82.00
2022-09-01T05:23:50.028Z,82.21
2022-09-01T05:24:50.025Z,82.10
2022-09-01T05:25:50.031Z,82.10
2022-09-01T05:26:50.018Z,82.61
2022-09-01T05:27:50.057Z,82.71
2022-09-01T05:28:49.982Z,82.71
2022-09-01T05:29:49.963Z,82.61
2022-09-01T05:30:49.957Z,82.61
2022-09-01T05:31:50.515Z,82.41
2022-09-01T05:32:49.950Z,82.00
2022-09-01T05:33:49.919Z,82.82
2022-09-01T05:34:49.926Z,82.92
2022-09-01T05:35:49.897Z,82.41
2022-09-01T05:36:49.897Z,82.71
2022-09-01T05:37:49.872Z,82.21
2022-09-01T05:38:49.865Z,82.61
2022-09-01T05:39:49.854Z,82.92
2022-09-01T05:40:49.891Z,82.61
2022-09-01T05:41:49.851Z,82.10
2022-09-01T05:42:49.831Z,82.21
2022-09-01T05:43:49.837Z,82.47
2022-09-01T05:44:49.820Z,82.27
2022-09-01T05:46:05.713Z,82.78
2022-09-01T05:46:50.893Z,82.68
2022-09-01T05:47:49.772Z,82.17
2022-09-01T05:48:49.755Z,82.47
2022-09-01T05:49:49.810Z,82.47
2022-09-01T05:50:49.729Z,82.57
2022-09-01T05:51:50.923Z,82.23
2022-09-01T05:52:49.723Z,82.03
2022-09-01T05:53:49.698Z,82.54
2022-09-01T05:54:49.946Z,81.93
2022-09-01T05:55:49.676Z,82.19
2022-09-01T05:56:49.661Z,80.93
2022-09-01T05:57:49.663Z,79.94
2022-09-01T05:59:50.640Z,77.53
2022-09-01T06:00:49.619Z,77.05
2022-09-01T06:01:50.680Z,76.34
2022-09-01T06:02:49.750Z,75.09
2022-09-01T06:03:49.584Z,75.35
2022-09-01T06:04:49.601Z,74.44
2022-09-01T06:05:49.560Z,73.60
2022-09-01T06:07:06.728Z,72.89
2022-09-01T06:07:50.587Z,72.85
2022-09-01T06:08:49.527Z,72.96
2022-09-01T06:09:49.513Z,73.05
2022-09-01T06:10:49.503Z,72.92
2022-09-01T06:11:49.491Z,71.80
2022-09-01T06:12:49.514Z,71.77
2022-09-01T06:13:53.503Z,71.03
2022-09-01T06:14:50.461Z,70.59
2022-09-01T06:15:49.491Z,69.78
2022-09-01T06:16:49.443Z,69.45
2022-09-01T06:17:49.445Z,68.60
2022-09-01T06:18:49.416Z,68.37
2022-09-01T06:19:49.399Z,68.10
2022-09-01T06:20:49.389Z,66.86
2022-09-01T06:21:49.375Z,66.13
2022-09-01T06:22:49.376Z,65.59
2022-09-01T06:23:49.353Z,64.69
2022-09-01T06:24:54.488Z,64.45
2022-09-01T06:25:50.334Z,64.25
2022-09-01T06:26:49.326Z,64.52
2022-09-01T06:27:49.320Z,64.02
2022-09-01T06:28:49.299Z,63.68
2022-09-01T06:29:49.283Z,64.06
2022-09-01T06:30:49.280Z,62.65
2022-09-01T06:31:49.320Z,62.55
2022-09-01T06:32:49.285Z,62.65
2022-09-01T06:33:49.269Z,62.15
2022-09-01T06:34:49.261Z,61.74
2022-09-01T06:35:49.222Z,62.35
2022-09-01T06:36:49.212Z,62.58
2022-09-01T06:37:49.214Z,62.75
2022-09-01T06:38:49.197Z,62.35
2022-09-01T06:39:49.194Z,62.52
2022-09-01T06:40:50.994Z,61.69
2022-09-01T06:41:49.153Z,61.49
2022-09-01T06:42:49.153Z,61.18
2022-09-01T06:43:51.500Z,60.75
2022-09-01T06:44:49.335Z,60.82
2022-09-01T06:45:49.394Z,60.60
2022-09-01T06:46:49.879Z,59.96
2022-09-01T06:47:49.275Z,59.33
2022-09-01T06:48:49.629Z,58.37
2022-09-01T06:49:51.121Z,57.57
2022-09-01T06:51:50.212Z,55.82
2022-09-01T06:53:52.977Z,54.69
2022-09-01T06:54:49.310Z,55.22
2022-09-01T06:55:49.706Z,55.42
2022-09-01T06:56:51.393Z,55.35
2022-09-01T06:58:06.558Z,55.27
2022-09-01T06:58:54.569Z,55.98
2022-09-01T06:59:49.585Z,56.65
2022-09-01T07:00:50.553Z,56.62
2022-09-01T07:02:01.507Z,54.92
2022-09-01T07:02:52.327Z,55.35
2022-09-01T08:21:02.342Z,55.40
2022-09-01T08:22:02.533Z,56.46
2022-09-01T08:23:02.312Z,54.27
2022-09-01T08:24:02.296Z,54.06
2022-09-01T08:25:02.295Z,53.47
2022-09-01T08:26:02.282Z,53.47
2022-09-01T08:27:02.265Z,53.47
2022-09-01T08:28:02.275Z,54.19
2022-09-01T08:29:02.249Z,56.67
2022-09-01T08:30:02.274Z,55.97
2022-09-01T08:31:02.282Z,56.67
2022-09-01T08:32:02.282Z,55.34
2022-09-01T08:33:10.152Z,57.24
2022-09-01T08:34:03.184Z,54.82
2022-09-01T08:35:02.177Z,54.71
2022-09-01T08:36:02.162Z,54.52
2022-09-01T08:37:02.179Z,54.39
2022-09-01T08:38:02.149Z,53.49
2022-09-01T08:39:02.126Z,56.18
2022-09-01T08:40:04.094Z,53.39
2022-09-01T08:41:02.198Z,54.89
2022-09-01T08:42:02.094Z,52.89
2022-09-01T08:43:02.107Z,52.17
2022-09-01T08:44:02.072Z,53.06
2022-09-01T08:45:02.066Z,52.94
2022-09-01T08:46:02.095Z,51.67
2022-09-01T08:47:02.059Z,51.15
2022-09-01T08:48:37.012Z,51.25
2022-09-01T08:49:24.623Z,52.64
2022-09-01T08:50:05.988Z,51.84
2022-09-01T08:51:02.307Z,51.32
2022-09-01T08:52:01.997Z,51.32
2022-09-01T08:53:09.483Z,51.92
2022-09-01T08:54:02.971Z,51.22
2022-09-01T08:55:01.950Z,52.19
2022-09-01T08:56:01.949Z,52.79
2022-09-01T08:57:01.926Z,50.30
2022-09-01T08:58:02.254Z,50.10
2022-09-01T08:59:02.955Z,50.70
2022-09-01T09:00:01.932Z,49.60
2022-09-01T09:01:01.888Z,49.10
2022-09-01T09:02:01.935Z,50.00
2022-09-01T09:03:01.985Z,49.60
2022-09-01T09:04:01.858Z,50.08
2022-09-01T09:05:02.006Z,50.30
2022-09-01T09:06:01.836Z,49.30
2022-09-01T09:07:01.809Z,49.90
2022-09-01T09:08:09.042Z,49.68
2022-09-01T09:09:02.824Z,49.38
2022-09-01T09:10:01.780Z,47.79
2022-09-01T09:11:01.767Z,47.89
2022-09-01T09:12:01.770Z,47.21
2022-09-01T09:13:01.759Z,47.41
2022-09-01T09:14:01.756Z,47.89
2022-09-01T09:15:01.741Z,49.58
2022-09-01T09:16:09.050Z,49.28
2022-09-01T09:17:02.707Z,47.99
2022-09-01T09:18:01.691Z,47.77
2022-09-01T09:19:01.678Z,47.37
2022-09-01T09:20:01.689Z,47.17
2022-09-01T09:21:01.666Z,47.66
2022-09-01T09:22:02.001Z,46.67
2022-09-01T09:23:03.836Z,46.37
2022-09-01T09:24:01.644Z,46.08
2022-09-01T09:25:01.632Z,46.37
2022-09-01T09:26:01.607Z,46.57
2022-09-01T09:27:01.588Z,46.08
2022-09-01T09:28:01.611Z,45.57
2022-09-01T09:29:01.582Z,45.97
2022-09-01T09:30:07.322Z,46.20
2022-09-01T09:31:02.584Z,46.49
2022-09-01T09:32:01.969Z,46.20
2022-09-01T09:34:02.513Z,46.79
2022-09-01T09:35:01.520Z,49.08
2022-09-01T09:36:01.493Z,47.07
2022-09-01T09:37:01.491Z,46.97
2022-09-01T09:38:01.474Z,47.25
2022-09-01T09:39:01.482Z,45.93
2022-09-01T09:40:01.466Z,46.08
2022-09-01T09:41:19.004Z,45.97
2022-09-01T09:42:02.441Z,47.54
2022-09-01T09:43:01.918Z,46.15
2022-09-01T09:44:01.417Z,47.84
2022-09-01T09:45:01.429Z,46.15
2022-09-01T09:46:01.422Z,45.43
2022-09-01T09:47:01.459Z,43.94
2022-09-01T09:48:01.365Z,44.64
2022-09-01T09:49:01.352Z,44.04
2022-09-01T09:50:01.357Z,43.94
2022-09-01T09:51:01.342Z,44.56
2022-09-01T09:52:01.323Z,44.85
2022-09-01T09:53:01.310Z,46.20
2022-09-01T09:54:01.296Z,45.94
2022-09-01T09:55:01.284Z,46.26
2022-09-01T09:56:01.294Z,47.16
2022-09-01T09:57:01.258Z,46.98
2022-09-01T09:58:01.248Z,47.58
2022-09-01T09:59:01.243Z,47.75
2022-09-01T10:00:01.763Z,47.16
2022-09-01T10:01:01.286Z,47.14
2022-09-01T10:02:01.204Z,47.63
2022-09-01T10:03:01.200Z,47.39
2022-09-01T10:04:01.264Z,48.56
2022-09-01T10:05:01.197Z,45.85
2022-09-01T10:06:01.161Z,46.42
2022-09-01T10:07:01.159Z,45.61
2022-09-01T10:08:01.142Z,44.40
2022-09-01T10:09:01.126Z,44.59
2022-09-01T10:10:01.110Z,43.90
2022-09-01T10:11:01.105Z,44.02
2022-09-01T10:12:01.102Z,45.21
2022-09-01T10:13:02.180Z,44.92
2022-09-01T10:14:01.098Z,44.44
2022-09-01T10:15:04.661Z,45.03
2022-09-01T10:16:03.584Z,45.23
2022-09-01T10:17:01.673Z,46.23
2022-09-01T10:18:30.675Z,45.81
2022-09-01T10:19:02.016Z,45.89
2022-09-01T10:20:01.007Z,44.99
2022-09-01T10:21:00.991Z,46.28
2022-09-01T10:22:00.993Z,45.29
2022-09-01T10:23:00.971Z,44.97
2022-09-01T10:24:17.668Z,44.95
2022-09-01T10:25:01.968Z,44.06
2022-09-01T10:26:00.948Z,44.37
2022-09-01T10:27:00.938Z,44.70
2022-09-01T10:28:00.909Z,45.79
2022-09-01T10:29:00.924Z,46.08
2022-09-01T10:31:01.965Z,45.17
2022-09-01T10:32:30.740Z,44.06
2022-09-01T10:33:07.975Z,43.56
2022-09-01T10:34:01.865Z,43.88
2022-09-01T10:35:00.835Z,42.29
2022-09-01T10:36:00.852Z,43.80
2022-09-01T10:37:00.829Z,44.22
2022-09-01T10:38:00.808Z,45.71
2022-09-01T10:39:06.189Z,44.92
2022-09-01T10:40:01.952Z,44.62
2022-09-01T10:41:00.816Z,44.52
2022-09-01T10:42:01.106Z,45.61
2022-09-01T10:43:00.969Z,45.81
2022-09-01T10:44:02.397Z,45.23
2022-09-01T10:45:00.726Z,44.96
2022-09-01T10:46:05.692Z,46.08
2022-09-01T10:47:04.018Z,46.27
2022-09-01T10:48:02.049Z,45.87
2022-09-01T10:49:04.406Z,45.15
2022-09-01T10:50:01.480Z,45.75
2022-09-01T10:51:00.877Z,45.33
2022-09-01T10:52:08.559Z,44.62
2022-09-01T10:53:01.645Z,44.22
2022-09-01T10:54:03.663Z,44.00
2022-09-01T10:55:00.623Z,42.51
2022-09-01T10:56:01.988Z,42.53
2022-09-01T10:57:03.931Z,44.04
2022-09-01T10:58:09.229Z,44.26
2022-09-01T11:00:01.886Z,44.04
2022-09-01T11:01:34.883Z,44.32
2022-09-01T11:03:29.899Z,42.99
2022-09-01T11:04:01.644Z,43.68
2022-09-01T11:05:00.752Z,43.36
2022-09-01T11:06:12.072Z,41.69
2022-09-01T11:07:16.885Z,41.61
2022-09-01T11:08:09.151Z,41.31
2022-09-01T11:09:01.484Z,42.21
2022-09-01T11:10:10.858Z,42.03
2022-09-01T11:11:01.438Z,41.02
2022-09-01T11:12:00.426Z,41.24
2022-09-01T11:13:00.423Z,42.03
2022-09-01T11:14:00.420Z,42.43
2022-09-01T11:15:00.387Z,43.15
2022-09-01T11:16:00.707Z,42.77
2022-09-01T11:17:00.472Z,43.59
2022-09-01T11:18:00.380Z,44.48
2022-09-01T11:19:00.343Z,42.99
2022-09-01T11:20:00.337Z,43.88
2022-09-01T11:21:00.323Z,44.06
2022-09-01T11:22:00.322Z,44.14
2022-09-01T11:23:00.299Z,43.82
2022-09-01T11:24:00.315Z,43.01
2022-09-01T11:25:12.160Z,41.89
2022-09-01T11:27:01.267Z,42.09
2022-09-01T11:28:00.244Z,41.58
2022-09-01T11:29:00.249Z,42.07
2022-09-01T11:30:00.236Z,42.37
2022-09-01T11:31:00.214Z,43.16
2022-09-01T11:32:00.279Z,39.81
2022-09-01T11:33:00.184Z,40.72
2022-09-01T11:34:00.203Z,41.53
2022-09-01T11:35:00.167Z,40.64
2022-09-01T11:36:00.147Z,41.46
2022-09-01T11:37:00.142Z,41.79
2022-09-01T11:38:00.126Z,42.19
2022-09-01T11:39:00.134Z,42.39
2022-09-01T11:40:00.130Z,43.76
2022-09-01T11:41:00.106Z,42.47
2022-09-01T11:42:03.479Z,41.93
2022-09-01T11:43:00.077Z,41.34
2022-09-01T11:44:00.166Z,40.42
2022-09-01T11:45:00.050Z,41.34
2022-09-01T11:46:00.106Z,41.74
2022-09-01T11:47:00.026Z,41.02
2022-09-01T11:48:00.030Z,41.22
2022-09-01T11:49:00.033Z,42.29
2022-09-01T11:50:00.000Z,41.17
2022-09-01T11:50:59.983Z,42.45
2022-09-01T11:51:59.971Z,40.66
2022-09-01T11:53:04.791Z,40.36
2022-09-01T11:54:00.957Z,39.67
2022-09-01T11:54:59.958Z,41.26
2022-09-01T11:55:59.924Z,41.08
2022-09-01T11:56:59.914Z,40.60
2022-09-01T11:57:59.903Z,40.82
2022-09-01T11:58:59.904Z,42.13
2022-09-01T11:59:59.920Z,42.23
2022-09-01T12:00:59.900Z,41.53
2022-09-01T12:01:59.981Z,42.23
2022-09-01T12:03:00.060Z,42.75
2022-09-01T12:03:59.843Z,42.35
2022-09-01T12:04:59.883Z,42.35
2022-09-01T12:05:59.809Z,44.02
2022-09-01T12:06:59.857Z,42.13
2022-09-01T12:07:59.842Z,42.53
2022-09-01T12:08:59.901Z,42.15
2022-09-01T12:09:59.799Z,42.17
2022-09-01T12:10:59.758Z,43.08
2022-09-01T12:11:59.758Z,42.61
2022-09-01T12:12:59.744Z,43.80
2022-09-01T12:13:59.736Z,43.79
2022-09-01T12:15:05.729Z,43.88
2022-09-01T12:16:18.316Z,43.88
2022-09-01T12:17:00.803Z,43.59
2022-09-01T12:17:59.678Z,44.38
2022-09-01T12:18:59.668Z,42.57
2022-09-01T12:19:59.665Z,42.27
2022-09-01T12:20:59.651Z,42.25
2022-09-01T12:21:59.639Z,42.03
2022-09-01T12:22:59.624Z,41.44
2022-09-01T12:23:59.613Z,42.53
2022-09-01T12:24:59.630Z,42.63
2022-09-01T12:25:59.595Z,41.93
2022-09-01T12:26:59.598Z,42.93
2022-09-01T12:27:59.564Z,41.14
2022-09-01T12:28:59.560Z,42.21
2022-09-01T12:29:59.581Z,41.71
2022-09-01T12:30:59.569Z,41.52
2022-09-01T12:31:59.596Z,40.92
2022-09-01T12:34:00.530Z,42.19
2022-09-01T12:34:59.495Z,42.71
2022-09-01T12:35:59.721Z,43.40
2022-09-01T12:36:59.480Z,43.20
2022-09-01T12:37:59.476Z,43.40
2022-09-01T12:38:59.447Z,42.49
2022-09-01T12:39:59.435Z,42.29
2022-09-01T12:41:00.023Z,42.09
2022-09-01T12:41:59.413Z,41.99
2022-09-01T12:42:59.402Z,42.09
2022-09-01T12:43:59.390Z,42.11
2022-09-01T12:44:59.384Z,42.71
2022-09-01T12:45:59.456Z,42.19
2022-09-01T12:46:59.360Z,42.17
2022-09-01T12:47:59.347Z,42.77
2022-09-01T12:48:59.335Z,43.34
2022-09-01T12:49:59.330Z,41.46
2022-09-01T12:50:59.313Z,41.77
2022-09-01T12:52:00.786Z,40.98
2022-09-01T12:52:59.304Z,42.17
2022-09-01T12:53:59.290Z,41.97
2022-09-01T12:54:59.274Z,42.35
2022-09-01T12:55:59.329Z,42.15
2022-09-01T12:56:59.330Z,40.86
2022-09-01T12:57:59.288Z,41.06
2022-09-01T12:58:59.223Z,41.67
2022-09-01T12:59:59.224Z,42.17
2022-09-01T13:00:59.376Z,42.07
2022-09-01T13:01:59.905Z,42.07
2022-09-01T13:02:59.195Z,42.58
2022-09-01T13:03:59.200Z,42.71
2022-09-01T13:04:59.161Z,42.51
2022-09-01T13:05:59.141Z,42.80
2022-09-01T13:06:59.149Z,41.83
2022-09-01T13:07:59.153Z,42.45
2022-09-01T13:08:59.134Z,42.37
2022-09-01T13:09:59.104Z,43.19
2022-09-01T13:10:59.090Z,44.18
2022-09-01T13:12:07.315Z,44.08
2022-09-01T13:13:00.083Z,44.68
2022-09-01T13:13:59.059Z,44.38
2022-09-01T13:14:59.182Z,44.56
2022-09-01T13:15:59.068Z,43.24
2022-09-01T13:16:59.027Z,43.24
2022-09-01T13:17:59.040Z,43.13
2022-09-01T13:19:21.862Z,42.03
2022-09-01T13:20:00.048Z,41.52
2022-09-01T13:20:58.990Z,41.91
2022-09-01T13:21:58.976Z,41.91
2022-09-01T13:22:59.002Z,42.21
2022-09-01T13:23:58.949Z,42.49
2022-09-01T13:24:58.935Z,42.19
2022-09-01T13:25:58.929Z,42.39
2022-09-01T13:27:59.913Z,42.96
2022-09-01T13:28:58.905Z,42.07
2022-09-01T13:29:58.908Z,42.86
2022-09-01T13:34:21.821Z,42.66
2022-09-01T13:34:59.886Z,41.50
2022-09-01T13:35:59.140Z,42.39
2022-09-01T13:36:58.805Z,42.19
2022-09-01T13:37:58.802Z,42.49
2022-09-01T13:38:58.787Z,41.39
2022-09-01T13:39:58.778Z,41.00
2022-09-01T13:40:58.759Z,41.79
2022-09-01T13:41:58.741Z,41.67
2022-09-01T13:42:58.764Z,41.77
2022-09-01T13:43:58.727Z,40.28
2022-09-01T13:44:58.731Z,40.38
2022-09-01T13:45:59.088Z,40.41
2022-09-01T13:46:59.131Z,41.20
2022-09-01T13:49:03.240Z,40.70
2022-09-01T13:50:07.929Z,40.42
2022-09-01T13:51:18.200Z,41.83
2022-09-01T13:51:59.659Z,40.33
2022-09-01T13:52:58.652Z,40.33
2022-09-01T13:53:58.641Z,42.01
2022-09-01T13:54:58.616Z,42.11
2022-09-01T13:55:58.660Z,40.72
2022-09-01T13:56:58.581Z,40.62
2022-09-01T13:57:58.580Z,40.60
2022-09-01T13:58:58.595Z,40.70
2022-09-01T13:59:58.553Z,40.12
2022-09-01T14:00:58.588Z,40.42
2022-09-01T14:01:58.543Z,40.82
2022-09-01T14:02:58.535Z,40.33
2022-09-01T14:04:00.628Z,40.82
2022-09-01T14:04:58.567Z,40.52
2022-09-01T14:05:58.489Z,40.42
2022-09-01T14:06:58.469Z,40.52
2022-09-01T14:07:58.469Z,40.92
2022-09-01T14:08:58.462Z,40.72
2022-09-01T14:09:58.483Z,40.42
2022-09-01T14:10:58.440Z,40.72
2022-09-01T14:11:58.422Z,41.02
2022-09-01T14:12:58.400Z,40.52
2022-09-01T14:13:58.420Z,40.42
2022-09-01T14:16:18.848Z,40.01
2022-09-01T14:17:18.756Z,40.41
2022-09-01T14:18:18.732Z,39.63
2022-09-01T14:19:18.718Z,40.22
2022-09-01T14:20:18.697Z,40.20
2022-09-01T14:21:26.255Z,40.72
2022-09-01T14:22:18.659Z,40.62
2022-09-01T14:23:18.639Z,40.62
2022-09-01T14:24:18.631Z,39.95
2022-09-01T14:25:18.620Z,40.84